Clifford, PA

10:08 AM EDT on July 30, 2015 (GMT -0400)
Greenfield, PA | | Change Station
CLOSE
Current Station
Personal Weather Station
Location: Greenfield Township, PA
Elevation: 1467 ft
Nearby Weather Stations

Elev 1467 ft 41.64 °N, 75.63 °W | Updated 25 seconds ago

Overcast
Overcast
76.6 °F
Feels Like 78 °F
N
0.6
Wind Variable Wind from West
Gusts 21.0 mph

Today
High -- | Low -- °F
--% Chance of Precip.
Yesterday
High -- | Low -- °F
Precip. -- in
5:54 AM 8:22 PM
Waxing Gibbous, 99% visible
Pressure 29.86 in
Visibility 6.0 miles
Clouds Overcast 1700 ft
Heat Index 78 °F
Dew Point 72 °F
Humidity 86%
Rainfall 0.00 in
Snow Depth Not available.
UV 2 out of 12
Pollen 6.80 out of 12
Air Quality Not available.
Flu Activity Not available.
METAR KAVP 301354Z AUTO 23007KT 6SM HZ OVC017 27/22 A2989 RMK AO2 SLP110 T02670222

More Conditions Fewer Conditions

Pressure 29.86 in
Visibility 6.0 miles
Clouds Overcast 1700 ft
Heat Index 78 °F
Dew Point 72 °F
Humidity 86%
Rainfall 0.00 in
Snow Depth Not available.
UV 2 out of 12
Pollen 6.80 out of 12
Air Quality Not available.
Flu Activity Not available.
METAR KAVP 301354Z AUTO 23007KT 6SM HZ OVC017 27/22 A2989 RMK AO2 SLP110 T02670222

More Conditions Fewer Conditions

10-Day Weather Forecast

×

Almanac

Astronomy

Jul. 30, 2015 Rise Set
Actual Time
Civil Twilight
Nautical Twilight
Astronomical Twilight
Moon
Length of Visible Light
Length of Day
Tomorrow will be .
, % of the Moon is Illuminated

Today's Extremes

State Highs State Lows

Community

WunderPhotos

Upload Photos

1,842,378 photos uploaded!

WunderBlogs® & News

Nearby

Air Quality

  Air Quality AQ Index Pollutant
Not available.

Snow Depth

Station Depth Elevation

Earthquake Activity

City Distance Mag. Time & Date
Minimum magnitude displayed is 2.5.

Coastal Water Temperatures

Place Temperature

Stations

Nearby Weather Stations

Station Location Temp. Windchill Dew Point Humidity Wind Precip. Elev Updated Type